createdAt,value
2019-03-11T00:01:01.486Z,95679
2019-03-11T00:02:11.019Z,95683
2019-03-11T00:03:20.524Z,95690
2019-03-11T00:04:30.039Z,95692
2019-03-11T00:05:39.567Z,95689
2019-03-11T00:06:49.080Z,95696
2019-03-11T00:07:58.616Z,95694
2019-03-11T00:09:08.136Z,95693
2019-03-11T00:10:17.647Z,95683
2019-03-11T00:11:27.179Z,95693
2019-03-11T00:12:36.688Z,95677
2019-03-11T00:13:46.201Z,95682
2019-03-11T00:14:55.726Z,95684
2019-03-11T00:16:05.232Z,95691
2019-03-11T00:17:14.771Z,95682
2019-03-11T00:18:24.309Z,95679
2019-03-11T00:19:33.822Z,95677
2019-03-11T00:20:43.320Z,95682
2019-03-11T00:21:52.836Z,95678
2019-03-11T00:23:02.338Z,95693
2019-03-11T00:24:11.851Z,95690
2019-03-11T00:25:21.356Z,95698
2019-03-11T00:26:30.885Z,95690
2019-03-11T00:27:40.397Z,95699
2019-03-11T00:28:49.902Z,95695
2019-03-11T00:29:59.416Z,95690
2019-03-11T00:31:08.933Z,95694
2019-03-11T00:32:18.458Z,95699
2019-03-11T00:33:27.961Z,95697
2019-03-11T00:34:37.474Z,95696
2019-03-11T00:35:46.986Z,95697
2019-03-11T00:36:56.498Z,95708
2019-03-11T00:38:06.007Z,95703
2019-03-11T00:39:15.507Z,95699
2019-03-11T00:40:25.016Z,95705
2019-03-11T00:41:34.546Z,95699
2019-03-11T00:42:44.089Z,95698
2019-03-11T00:43:53.599Z,95702
2019-03-11T00:45:03.098Z,95703
2019-03-11T00:46:12.609Z,95699
2019-03-11T00:47:22.126Z,95700
2019-03-11T00:48:31.629Z,95700
2019-03-11T00:49:41.138Z,95703
2019-03-11T00:50:50.646Z,95704
2019-03-11T00:52:00.201Z,95704
2019-03-11T00:53:09.705Z,95700
2019-03-11T00:54:19.222Z,95698
2019-03-11T00:55:28.730Z,95704
2019-03-11T00:56:38.262Z,95695
2019-03-11T00:57:47.786Z,95692
2019-03-11T00:58:57.293Z,95697
2019-03-11T01:00:06.802Z,95690
2019-03-11T01:01:16.316Z,95704
2019-03-11T01:02:25.841Z,95691
2019-03-11T01:03:35.347Z,95688
2019-03-11T01:04:44.852Z,95696
2019-03-11T01:05:54.361Z,95706
2019-03-11T01:07:03.886Z,95706
2019-03-11T01:08:13.403Z,95688
2019-03-11T01:09:22.927Z,95684
2019-03-11T01:10:32.443Z,95689
2019-03-11T01:11:41.952Z,95690
2019-03-11T01:12:51.472Z,95702
2019-03-11T01:14:00.975Z,95703
2019-03-11T01:15:10.472Z,95706
2019-03-11T01:16:20.986Z,95710
2019-03-11T01:17:30.515Z,95716
2019-03-11T01:18:40.022Z,95711
2019-03-11T01:19:49.529Z,95722
2019-03-11T01:20:59.041Z,95726
2019-03-11T01:22:08.565Z,95722
2019-03-11T01:23:18.079Z,95720
2019-03-11T01:24:28.581Z,95727
2019-03-11T01:25:38.093Z,95715
2019-03-11T01:26:47.614Z,95732
2019-03-11T01:27:57.138Z,95740
2019-03-11T01:29:06.643Z,95719
2019-03-11T01:30:16.161Z,95716
2019-03-11T01:31:25.666Z,95726
2019-03-11T01:32:36.191Z,95717
2019-03-11T01:33:45.685Z,95727
2019-03-11T01:34:55.196Z,95728
2019-03-11T01:36:04.712Z,95730
2019-03-11T01:37:14.233Z,95720
2019-03-11T01:38:23.742Z,95709
2019-03-11T01:39:33.250Z,95712
2019-03-11T01:40:42.779Z,95715
2019-03-11T01:41:52.278Z,95719
2019-03-11T01:43:02.808Z,95712
2019-03-11T01:44:12.321Z,95709
2019-03-11T01:45:21.820Z,95706
2019-03-11T01:46:31.323Z,95699
2019-03-11T01:47:40.846Z,95705
2019-03-11T01:48:50.351Z,95704
2019-03-11T01:49:59.862Z,95707
2019-03-11T01:51:09.392Z,95710
2019-03-11T01:52:18.914Z,95699
2019-03-11T01:53:28.421Z,95693
2019-03-11T01:54:37.923Z,95695
2019-03-11T01:55:47.435Z,95690
2019-03-11T01:56:56.944Z,95694
2019-03-11T01:58:06.469Z,95697
2019-03-11T01:59:15.975Z,95689
2019-03-11T02:00:25.485Z,95683
2019-03-11T02:01:34.989Z,95695
2019-03-11T02:02:44.512Z,95680
2019-03-11T02:03:54.016Z,95686
2019-03-11T02:05:03.528Z,95683
2019-03-11T02:06:13.030Z,95689
2019-03-11T02:07:22.532Z,95678
2019-03-11T02:08:32.070Z,95674
2019-03-11T02:09:41.573Z,95680
2019-03-11T02:10:51.095Z,95676
2019-03-11T02:12:00.609Z,95677
2019-03-11T02:13:10.131Z,95684
2019-03-11T02:14:19.631Z,95668
2019-03-11T02:15:29.140Z,95677
2019-03-11T02:16:38.643Z,95683
2019-03-11T02:17:48.164Z,95679
2019-03-11T02:18:57.669Z,95675
2019-03-11T02:20:07.178Z,95669
2019-03-11T02:21:16.682Z,95684
2019-03-11T02:22:26.185Z,95685
2019-03-11T02:23:35.743Z,95672
2019-03-11T02:24:45.247Z,95663
2019-03-11T02:25:54.760Z,95664
2019-03-11T02:27:04.267Z,95668
2019-03-11T02:28:13.789Z,95657
2019-03-11T02:29:23.300Z,95658
2019-03-11T02:30:32.801Z,95654
2019-03-11T02:31:42.356Z,95650
2019-03-11T02:32:51.907Z,95649
2019-03-11T02:34:01.355Z,95643
2019-03-11T02:35:10.852Z,95657
2019-03-11T02:36:20.365Z,95642
2019-03-11T02:37:29.893Z,95642
2019-03-11T02:38:39.412Z,95639
2019-03-11T02:39:48.929Z,95632
2019-03-11T02:40:58.435Z,95639
2019-03-11T02:42:07.944Z,95638
2019-03-11T02:43:17.472Z,95632
2019-03-11T02:44:26.978Z,95632
2019-03-11T02:45:36.492Z,95640
2019-03-11T02:46:46.001Z,95630
2019-03-11T02:47:55.520Z,95649
2019-03-11T02:49:05.031Z,95640
2019-03-11T02:50:14.531Z,95641
2019-03-11T02:51:24.035Z,95635
2019-03-11T02:52:33.552Z,95630
2019-03-11T02:53:43.074Z,95625
2019-03-11T02:54:53.567Z,95627
2019-03-11T02:56:03.082Z,95624
2019-03-11T02:57:12.578Z,95624
2019-03-11T02:58:22.105Z,95629
2019-03-11T02:59:32.355Z,95625
2019-03-11T03:00:41.247Z,95639
2019-03-11T03:01:50.852Z,95626
2019-03-11T03:03:00.437Z,95626
2019-03-11T03:04:10.052Z,95622
2019-03-11T03:05:19.552Z,95626
2019-03-11T03:06:29.072Z,95618
2019-03-11T03:07:38.573Z,95621
2019-03-11T03:08:48.098Z,95619
2019-03-11T03:09:57.605Z,95621
2019-03-11T03:11:07.111Z,95619
2019-03-11T03:12:16.620Z,95619
2019-03-11T03:13:26.143Z,95624
2019-03-11T03:14:35.653Z,95623
2019-03-11T03:15:45.157Z,95624
2019-03-11T03:16:54.678Z,95630
2019-03-11T03:18:04.187Z,95611
2019-03-11T03:19:13.710Z,95616
2019-03-11T03:20:23.222Z,95607
2019-03-11T03:21:32.716Z,95612
2019-03-11T03:22:42.232Z,95603
2019-03-11T03:23:51.743Z,95609
2019-03-11T03:25:01.253Z,95606
2019-03-11T03:26:10.762Z,95608
2019-03-11T03:27:20.272Z,95606
2019-03-11T03:28:30.788Z,95612
2019-03-11T03:29:40.291Z,95613
2019-03-11T03:30:49.802Z,95613
2019-03-11T03:31:59.299Z,95613
2019-03-11T03:33:08.809Z,95617
2019-03-11T03:34:18.363Z,95613
2019-03-11T03:35:27.837Z,95610
2019-03-11T03:36:37.340Z,95610
2019-03-11T03:37:46.861Z,95613
2019-03-11T03:38:56.387Z,95613
2019-03-11T03:40:05.897Z,95604
2019-03-11T03:41:15.401Z,95612
2019-03-11T03:42:24.920Z,95611
2019-03-11T03:43:34.427Z,95607
2019-03-11T03:44:44.950Z,95607
2019-03-11T03:45:54.457Z,95604
2019-03-11T03:47:03.959Z,95609
2019-03-11T03:48:13.469Z,95605
2019-03-11T03:49:22.998Z,95610
2019-03-11T03:50:32.497Z,95596
2019-03-11T03:51:42.003Z,95603
2019-03-11T03:52:51.507Z,95604
2019-03-11T03:54:01.040Z,95606
2019-03-11T03:55:10.542Z,95603
2019-03-11T03:56:20.055Z,95604
2019-03-11T03:57:29.566Z,95610
2019-03-11T03:58:39.080Z,95601
2019-03-11T03:59:48.589Z,95594
2019-03-11T04:00:58.102Z,95598
2019-03-11T04:02:07.604Z,95596
2019-03-11T04:03:17.110Z,95602
2019-03-11T04:04:26.639Z,95589
2019-03-11T04:05:36.149Z,95593
2019-03-11T04:06:45.654Z,95590
2019-03-11T04:07:55.159Z,95593
2019-03-11T04:09:04.684Z,95595
2019-03-11T04:10:14.206Z,95590
2019-03-11T04:11:23.707Z,95589
2019-03-11T04:12:33.202Z,95589
2019-03-11T04:13:42.713Z,95585
2019-03-11T04:14:52.242Z,95591
2019-03-11T04:16:01.754Z,95587
2019-03-11T04:17:11.259Z,95585
2019-03-11T04:18:20.765Z,95585
2019-03-11T04:19:30.282Z,95581
2019-03-11T04:20:39.849Z,95579
2019-03-11T04:21:49.296Z,95572
2019-03-11T04:22:58.807Z,95569
2019-03-11T04:24:08.314Z,95565
2019-03-11T04:25:17.833Z,95568
2019-03-11T04:26:27.347Z,95566
2019-03-11T04:27:36.857Z,95567
2019-03-11T04:28:46.356Z,95564
2019-03-11T04:29:55.875Z,95560
2019-03-11T04:31:05.402Z,95561
2019-03-11T04:32:14.947Z,95559
2019-03-11T04:33:24.451Z,95558
2019-03-11T04:34:36.047Z,95559
2019-03-11T04:35:43.467Z,95561
2019-03-11T04:36:53.963Z,95558
2019-03-11T04:38:03.474Z,95555
2019-03-11T04:39:12.980Z,95548
2019-03-11T04:40:22.504Z,95551
2019-03-11T04:41:32.011Z,95540
2019-03-11T04:42:41.529Z,95538
2019-03-11T04:43:51.040Z,95533
2019-03-11T04:45:00.552Z,95534
2019-03-11T04:46:10.056Z,95529
2019-03-11T04:47:19.562Z,95530
2019-03-11T04:48:29.072Z,95524
2019-03-11T04:49:38.599Z,95533
2019-03-11T04:50:48.103Z,95522
2019-03-11T04:51:57.622Z,95512
2019-03-11T04:53:07.123Z,95528
2019-03-11T04:54:16.637Z,95528
2019-03-11T04:55:26.177Z,95531
2019-03-11T04:56:35.684Z,95516
2019-03-11T04:57:45.190Z,95532
2019-03-11T04:58:54.700Z,95512
2019-03-11T05:00:04.217Z,95522
2019-03-11T05:01:13.723Z,95510
2019-03-11T05:02:23.249Z,95513
2019-03-11T05:03:32.754Z,95509
2019-03-11T05:04:42.445Z,95512
2019-03-11T05:05:51.954Z,95518
2019-03-11T05:07:01.460Z,95507
2019-03-11T05:08:10.997Z,95516
2019-03-11T05:09:20.496Z,95509
2019-03-11T05:10:30.050Z,95517
2019-03-11T05:11:39.561Z,95510
2019-03-11T05:12:49.072Z,95513
2019-03-11T05:13:58.576Z,95510
2019-03-11T05:15:08.101Z,95504
2019-03-11T05:16:17.613Z,95497
2019-03-11T05:17:27.118Z,95507
2019-03-11T05:18:36.626Z,95491
2019-03-11T05:19:46.141Z,95493
2019-03-11T05:20:55.679Z,95493
2019-03-11T05:22:05.208Z,95500
2019-03-11T05:23:14.797Z,95503
2019-03-11T05:24:24.390Z,95489
2019-03-11T05:25:34.008Z,95496
2019-03-11T05:26:43.615Z,95481
2019-03-11T05:27:53.191Z,95484
2019-03-11T05:29:02.695Z,95486
2019-03-11T05:30:12.252Z,95500
2019-03-11T05:31:21.841Z,95485
2019-03-11T05:32:31.364Z,95487
2019-03-11T05:33:40.862Z,95483
2019-03-11T05:34:50.389Z,95489
2019-03-11T05:35:59.916Z,95493
2019-03-11T05:37:09.424Z,95482
2019-03-11T05:38:18.928Z,95476
2019-03-11T05:39:28.441Z,95470
2019-03-11T05:40:37.975Z,95466
2019-03-11T05:41:47.477Z,95476
2019-03-11T05:42:56.983Z,95486
2019-03-11T05:44:06.499Z,95475
2019-03-11T05:45:16.718Z,95465
2019-03-11T05:46:26.734Z,95460
2019-03-11T05:47:36.253Z,95493
2019-03-11T05:48:45.764Z,95467
2019-03-11T05:49:55.421Z,95467
2019-03-11T05:51:04.922Z,95459
2019-03-11T05:52:14.427Z,95450
2019-03-11T05:53:23.932Z,95475
2019-03-11T05:54:33.447Z,95467
2019-03-11T05:55:42.972Z,95448
2019-03-11T05:56:52.478Z,95453
2019-03-11T05:58:01.972Z,95443
2019-03-11T05:59:11.476Z,95452
2019-03-11T06:00:20.996Z,95455
2019-03-11T06:01:30.516Z,95469
2019-03-11T06:02:40.009Z,95439
2019-03-11T06:03:49.518Z,95433
2019-03-11T06:04:59.038Z,95435
2019-03-11T06:06:08.557Z,95433
2019-03-11T06:07:18.057Z,95440
2019-03-11T06:08:27.569Z,95427
2019-03-11T06:09:37.079Z,95428
2019-03-11T06:10:46.596Z,95425
2019-03-11T06:11:56.097Z,95442
2019-03-11T06:13:05.606Z,95465
2019-03-11T06:14:15.110Z,95447
2019-03-11T06:15:24.631Z,95445
2019-03-11T06:16:34.130Z,95430
2019-03-11T06:17:43.742Z,95441
2019-03-11T06:18:53.312Z,95424
2019-03-11T06:20:02.711Z,95418
2019-03-11T06:21:12.212Z,95409
2019-03-11T06:22:21.720Z,95409
2019-03-11T06:23:31.219Z,95416
2019-03-11T06:24:40.813Z,95421
2019-03-11T06:25:50.284Z,95441
2019-03-11T06:26:59.795Z,95412
2019-03-11T06:28:09.300Z,95429
2019-03-11T06:29:29.683Z,95425
2019-03-11T06:30:29.300Z,95429
2019-03-11T06:31:38.809Z,95423
2019-03-11T06:32:48.315Z,95427
2019-03-11T06:33:57.800Z,95418
2019-03-11T06:35:07.316Z,95438
2019-03-11T06:36:16.918Z,95432
2019-03-11T06:37:26.426Z,95428
2019-03-11T06:38:35.934Z,95441
2019-03-11T06:39:45.463Z,95447
2019-03-11T06:40:55.035Z,95461
2019-03-11T06:42:04.523Z,95446
2019-03-11T06:43:13.020Z,95442
2019-03-11T06:44:22.530Z,95481
2019-03-11T06:45:32.051Z,95469
2019-03-11T06:46:41.561Z,95452
2019-03-11T06:47:51.137Z,95470
2019-03-11T06:49:00.643Z,95458
2019-03-11T06:50:10.143Z,95453
2019-03-11T06:51:19.668Z,95441
2019-03-11T06:52:29.164Z,95439
2019-03-11T06:53:38.666Z,95432
2019-03-11T06:54:48.171Z,95454
2019-03-11T06:55:57.689Z,95450
2019-03-11T06:57:07.193Z,95449
2019-03-11T06:58:16.688Z,95448
2019-03-11T06:59:26.191Z,95447
2019-03-11T07:00:35.718Z,95455
2019-03-11T07:01:45.225Z,95444
2019-03-11T07:02:54.740Z,95445
2019-03-11T07:04:04.244Z,95448
2019-03-11T07:05:19.665Z,95461
2019-03-11T07:06:24.237Z,95462
2019-03-11T07:07:33.738Z,95465
2019-03-11T07:08:43.304Z,95471
2019-03-11T07:09:52.795Z,95474
2019-03-11T07:11:02.418Z,95495
2019-03-11T07:12:11.918Z,95488
2019-03-11T07:13:21.422Z,95484
2019-03-11T07:14:30.927Z,95471
2019-03-11T07:15:40.444Z,95461
2019-03-11T07:16:49.954Z,95496
2019-03-11T07:17:59.451Z,95509
2019-03-11T07:19:08.972Z,95497
2019-03-11T07:20:18.473Z,95534
2019-03-11T07:21:27.987Z,95504
2019-03-11T07:22:37.493Z,95502
2019-03-11T07:23:46.998Z,95493
2019-03-11T07:24:56.506Z,95487
2019-03-11T07:26:07.035Z,95511
2019-03-11T07:27:16.571Z,95512
2019-03-11T07:28:26.073Z,95505
2019-03-11T07:29:35.577Z,95503
2019-03-11T07:30:45.099Z,95490
2019-03-11T07:31:54.615Z,95502
2019-03-11T07:33:06.793Z,95508
2019-03-11T07:34:13.638Z,95497
2019-03-11T07:35:23.140Z,95496
2019-03-11T07:36:32.676Z,95526
2019-03-11T07:37:42.169Z,95521
2019-03-11T07:38:51.692Z,95549
2019-03-11T07:40:02.193Z,95522
2019-03-11T07:41:11.730Z,95540
2019-03-11T07:42:21.242Z,95521
2019-03-11T07:43:30.741Z,95537
2019-03-11T07:44:40.266Z,95526
2019-03-11T07:45:50.779Z,95531
2019-03-11T07:47:00.338Z,95548
2019-03-11T07:48:09.842Z,95542
2019-03-11T07:49:19.352Z,95531
2019-03-11T07:50:28.861Z,95539
2019-03-11T07:51:38.421Z,95527
2019-03-11T07:52:47.969Z,95521
2019-03-11T07:53:57.472Z,95548
2019-03-11T07:55:06.985Z,95549
2019-03-11T07:56:16.512Z,95538
2019-03-11T07:57:26.021Z,95530
2019-03-11T07:58:35.534Z,95533
2019-03-11T07:59:45.054Z,95527
2019-03-11T08:00:54.575Z,95549
2019-03-11T08:02:04.083Z,95540
2019-03-11T08:03:13.600Z,95545
2019-03-11T08:04:23.119Z,95551
2019-03-11T08:05:32.630Z,95539
2019-03-11T08:06:42.148Z,95548
2019-03-11T08:07:51.681Z,95550
2019-03-11T08:09:01.170Z,95548
2019-03-11T08:10:10.676Z,95547
2019-03-11T08:11:20.202Z,95544
2019-03-11T08:12:29.706Z,95521
2019-03-11T08:13:39.203Z,95540
2019-03-11T08:14:48.716Z,95542
2019-03-11T08:15:58.242Z,95531
2019-03-11T08:17:07.744Z,95528
2019-03-11T08:18:17.255Z,95540
2019-03-11T08:19:27.757Z,95549
2019-03-11T08:20:37.264Z,95535
2019-03-11T08:21:46.798Z,95545
2019-03-11T08:22:56.309Z,95556
2019-03-11T08:24:05.835Z,95533
2019-03-11T08:25:15.352Z,95525
2019-03-11T08:26:25.871Z,95544
2019-03-11T08:27:35.383Z,95559
2019-03-11T08:28:44.898Z,95537
2019-03-11T08:29:54.422Z,95528
2019-03-11T08:31:03.970Z,95533
2019-03-11T08:32:13.486Z,95538
2019-03-11T08:33:22.997Z,95531
2019-03-11T08:34:32.511Z,95526
2019-03-11T08:35:43.014Z,95536
2019-03-11T08:36:52.536Z,95532
2019-03-11T08:38:04.763Z,95522
2019-03-11T08:39:11.540Z,95530
2019-03-11T08:40:21.063Z,95558
2019-03-11T08:41:30.591Z,95532
2019-03-11T08:42:40.103Z,95536
2019-03-11T08:43:49.610Z,95556
2019-03-11T08:44:59.138Z,95536
2019-03-11T08:46:08.683Z,95526
2019-03-11T08:47:18.196Z,95521
2019-03-11T08:48:27.704Z,95503
2019-03-11T08:49:37.210Z,95519
2019-03-11T08:50:46.724Z,95539
2019-03-11T08:51:56.267Z,95521
2019-03-11T08:53:06.845Z,95522
2019-03-11T08:54:16.391Z,95521
2019-03-11T08:55:25.910Z,95522
2019-03-11T08:56:35.442Z,95503
2019-03-11T08:57:44.968Z,95521
2019-03-11T08:58:54.484Z,95539
2019-03-11T09:00:04.007Z,95523
2019-03-11T09:01:13.538Z,95543
2019-03-11T09:02:23.068Z,95528
2019-03-11T09:03:32.586Z,95533
2019-03-11T09:04:42.187Z,95542
2019-03-11T09:05:51.703Z,95535
2019-03-11T09:07:01.243Z,95534
2019-03-11T09:08:10.758Z,95526
2019-03-11T09:09:20.275Z,95525
2019-03-11T09:10:29.792Z,95517
2019-03-11T09:11:39.337Z,95519
2019-03-11T09:12:48.870Z,95514
2019-03-11T09:13:58.393Z,95524
2019-03-11T09:15:07.913Z,95523
2019-03-11T09:16:17.495Z,95515
2019-03-11T09:17:27.029Z,95505
2019-03-11T09:18:36.549Z,95509
2019-03-11T09:19:46.085Z,95503
2019-03-11T09:20:55.622Z,95496
2019-03-11T09:22:05.180Z,95502
2019-03-11T09:23:14.699Z,95507
2019-03-11T09:24:24.220Z,95508
2019-03-11T09:25:33.751Z,95520
2019-03-11T09:26:43.293Z,95520
2019-03-11T09:27:52.841Z,95539
2019-03-11T09:29:02.380Z,95543
2019-03-11T09:30:11.951Z,95551
2019-03-11T09:31:21.476Z,95554
2019-03-11T09:32:30.993Z,95551
2019-03-11T09:33:40.504Z,95544
2019-03-11T09:34:50.020Z,95553
2019-03-11T09:35:59.549Z,95549
2019-03-11T09:37:09.068Z,95551
2019-03-11T09:38:18.581Z,95550
2019-03-11T09:39:28.097Z,95551
2019-03-11T09:40:37.608Z,95543
2019-03-11T09:41:47.135Z,95543
2019-03-11T09:42:56.653Z,95541
2019-03-11T09:44:06.168Z,95550
2019-03-11T09:45:16.670Z,95540
2019-03-11T09:46:27.195Z,95536
2019-03-11T09:47:36.719Z,95543
2019-03-11T09:48:46.280Z,95541
2019-03-11T09:49:55.787Z,95547
2019-03-11T09:51:05.323Z,95551
2019-03-11T09:52:14.856Z,95556
2019-03-11T09:53:24.388Z,95567
2019-03-11T09:54:33.892Z,95580
2019-03-11T09:55:43.408Z,95576
2019-03-11T09:56:52.938Z,95573
2019-03-11T09:58:02.465Z,95580
2019-03-11T09:59:11.974Z,95595
2019-03-11T10:00:21.485Z,95603
2019-03-11T10:01:31.010Z,95598
2019-03-11T10:02:51.132Z,95609
2019-03-11T10:03:51.766Z,95612
2019-03-11T10:05:01.295Z,95614
2019-03-11T10:06:10.833Z,95616
2019-03-11T10:07:20.340Z,95625
2019-03-11T10:08:29.853Z,95618
2019-03-11T10:09:39.379Z,95619
2019-03-11T10:10:48.906Z,95615
2019-03-11T10:11:58.443Z,95622
2019-03-11T10:13:07.946Z,95623
2019-03-11T10:14:17.457Z,95612
2019-03-11T10:15:26.974Z,95630
2019-03-11T10:16:36.497Z,95617
2019-03-11T10:17:46.619Z,95623
2019-03-11T10:18:56.122Z,95633
2019-03-11T10:20:05.629Z,95631
2019-03-11T10:21:15.145Z,95640
2019-03-11T10:22:24.693Z,95648
2019-03-11T10:23:34.211Z,95657
2019-03-11T10:24:43.725Z,95650
2019-03-11T10:25:53.244Z,95649
2019-03-11T10:27:03.763Z,95649
2019-03-11T10:28:13.275Z,95650
2019-03-11T10:29:22.783Z,95659
2019-03-11T10:30:32.294Z,95663
2019-03-11T10:31:41.821Z,95663
2019-03-11T10:32:51.345Z,95662
2019-03-11T10:34:00.860Z,95671
2019-03-11T10:35:30.031Z,95665
2019-03-11T10:36:20.871Z,95673
2019-03-11T10:37:30.394Z,95677
2019-03-11T10:38:39.912Z,95682
2019-03-11T10:39:49.481Z,95680
2019-03-11T10:40:59.007Z,95684
2019-03-11T10:42:08.544Z,95683
2019-03-11T10:43:18.057Z,95685
2019-03-11T10:44:27.585Z,95695
2019-03-11T10:45:37.106Z,95687
2019-03-11T10:46:46.640Z,95695
2019-03-11T10:47:56.162Z,95697
2019-03-11T10:49:05.714Z,95699
2019-03-11T10:50:15.183Z,95706
2019-03-11T10:51:24.698Z,95706
2019-03-11T10:52:34.216Z,95699
2019-03-11T10:53:43.729Z,95700
2019-03-11T10:54:53.240Z,95700
2019-03-11T10:56:02.763Z,95688
2019-03-11T10:57:12.285Z,95691
2019-03-11T10:58:21.802Z,95699
2019-03-11T10:59:32.308Z,95697
2019-03-11T11:00:41.838Z,95691
2019-03-11T11:01:51.366Z,95701
2019-03-11T11:03:00.890Z,95693
2019-03-11T11:04:10.404Z,95697
2019-03-11T11:05:19.914Z,95698
2019-03-11T11:06:29.429Z,95699
2019-03-11T11:07:38.954Z,95700
2019-03-11T11:08:48.464Z,95707
2019-03-11T11:09:57.975Z,95707
2019-03-11T11:11:07.506Z,95702
2019-03-11T11:12:17.033Z,95712
2019-03-11T11:13:26.538Z,95705
2019-03-11T11:14:36.042Z,95713
2019-03-11T11:15:45.553Z,95707
2019-03-11T11:16:55.055Z,95706
2019-03-11T11:18:04.595Z,95699
2019-03-11T11:19:14.121Z,95696
2019-03-11T11:20:23.609Z,95685
2019-03-11T11:21:33.112Z,95687
2019-03-11T11:22:42.642Z,95691
2019-03-11T11:23:52.165Z,95683
2019-03-11T11:25:01.677Z,95690
2019-03-11T11:26:11.183Z,95690
2019-03-11T11:27:20.701Z,95689
2019-03-11T11:28:30.207Z,95694
2019-03-11T11:29:39.717Z,95694
2019-03-11T11:30:49.231Z,95694
2019-03-11T11:31:58.744Z,95697
2019-03-11T11:33:08.262Z,95696
2019-03-11T11:34:17.781Z,95694
2019-03-11T11:35:27.289Z,95688
2019-03-11T11:36:36.800Z,95691
2019-03-11T11:37:46.325Z,95691
2019-03-11T11:38:55.829Z,95690
2019-03-11T11:40:05.347Z,95697
2019-03-11T11:41:16.530Z,95698
2019-03-11T11:42:24.371Z,95693
2019-03-11T11:43:33.881Z,95694
2019-03-11T11:44:43.449Z,95694
2019-03-11T11:45:52.897Z,95695
2019-03-11T11:47:02.409Z,95692
2019-03-11T11:48:11.939Z,95686
2019-03-11T11:49:21.452Z,95684
2019-03-11T11:50:30.969Z,95678
2019-03-11T11:51:40.487Z,95678
2019-03-11T11:52:50.013Z,95682
2019-03-11T11:53:59.516Z,95685
2019-03-11T11:55:09.034Z,95692
2019-03-11T11:56:18.550Z,95679
2019-03-11T11:57:28.072Z,95667
2019-03-11T11:58:37.597Z,95659
2019-03-11T11:59:53.860Z,95678
2019-03-11T12:00:57.592Z,95666
2019-03-11T12:02:07.102Z,95673
2019-03-11T12:03:16.624Z,95664
2019-03-11T12:04:26.143Z,95658
2019-03-11T12:05:35.655Z,95656
2019-03-11T12:06:45.177Z,95654
2019-03-11T12:07:54.688Z,95661
2019-03-11T12:09:04.196Z,95649
2019-03-11T12:10:13.705Z,95650
2019-03-11T12:11:23.229Z,95649
2019-03-11T12:12:32.746Z,95646
2019-03-11T12:13:42.272Z,95646
2019-03-11T12:14:51.786Z,95653
2019-03-11T12:16:01.523Z,95659
2019-03-11T12:17:11.269Z,95641
2019-03-11T12:18:20.803Z,95657
2019-03-11T12:19:30.324Z,95652
2019-03-11T12:20:39.911Z,95642
2019-03-11T12:21:49.442Z,95639
2019-03-11T12:22:58.974Z,95657
2019-03-11T12:24:08.483Z,95641
2019-03-11T12:25:17.994Z,95647
2019-03-11T12:26:27.523Z,95648
2019-03-11T12:27:37.034Z,95644
2019-03-11T12:28:47.536Z,95652
2019-03-11T12:29:57.048Z,95639
2019-03-11T12:31:06.569Z,95646
2019-03-11T12:32:16.080Z,95637
2019-03-11T12:33:25.602Z,95646
2019-03-11T12:34:35.118Z,95643
2019-03-11T12:35:44.626Z,95651
2019-03-11T12:36:54.152Z,95653
2019-03-11T12:38:03.658Z,95654
2019-03-11T12:39:13.178Z,95641
2019-03-11T12:40:22.691Z,95643
2019-03-11T12:41:32.224Z,95645
2019-03-11T12:42:41.731Z,95637
2019-03-11T12:43:51.245Z,95641
2019-03-11T12:45:00.757Z,95639
2019-03-11T12:46:10.291Z,95628
2019-03-11T12:47:19.820Z,95625
2019-03-11T12:48:29.335Z,95628
2019-03-11T12:49:38.849Z,95622
2019-03-11T12:50:48.370Z,95615
2019-03-11T12:51:57.894Z,95619
2019-03-11T12:53:07.413Z,95614
2019-03-11T12:54:16.952Z,95620
2019-03-11T12:55:26.448Z,95626
2019-03-11T12:56:35.976Z,95624
2019-03-11T12:57:45.498Z,95628
2019-03-11T12:58:55.018Z,95632
2019-03-11T13:00:04.529Z,95621
2019-03-11T13:01:14.058Z,95616
2019-03-11T13:02:23.574Z,95627
2019-03-11T13:03:33.093Z,95639
2019-03-11T13:04:42.601Z,95614
2019-03-11T13:05:52.111Z,95615
2019-03-11T13:07:01.644Z,95633
2019-03-11T13:08:11.142Z,95611
2019-03-11T13:09:20.655Z,95616
2019-03-11T13:10:30.174Z,95612
2019-03-11T13:11:39.697Z,95616
2019-03-11T13:12:49.205Z,95615
2019-03-11T13:13:58.714Z,95621
2019-03-11T13:15:08.238Z,95611
2019-03-11T13:16:17.780Z,95610
2019-03-11T13:17:27.307Z,95614
2019-03-11T13:18:36.816Z,95611
2019-03-11T13:19:46.321Z,95615
2019-03-11T13:20:55.832Z,95609
2019-03-11T13:22:05.363Z,95610
2019-03-11T13:23:14.868Z,95618
2019-03-11T13:24:24.478Z,95612
2019-03-11T13:25:34.043Z,95619
2019-03-11T13:26:43.562Z,95613
2019-03-11T13:27:53.066Z,95618
2019-03-11T13:29:02.590Z,95614
2019-03-11T13:30:12.087Z,95623
2019-03-11T13:31:21.596Z,95618
2019-03-11T13:32:31.128Z,95615
2019-03-11T13:33:40.632Z,95621
2019-03-11T13:34:50.142Z,95615
2019-03-11T13:35:59.650Z,95618
2019-03-11T13:37:09.167Z,95617
2019-03-11T13:38:18.675Z,95607
2019-03-11T13:39:28.183Z,95615
2019-03-11T13:40:37.680Z,95607
2019-03-11T13:41:47.197Z,95611
2019-03-11T13:42:56.701Z,95625
2019-03-11T13:44:06.207Z,95623
2019-03-11T13:45:15.720Z,95615
2019-03-11T13:46:25.217Z,95626
2019-03-11T13:47:34.735Z,95617
2019-03-11T13:48:44.236Z,95623
2019-03-11T13:49:53.742Z,95625
2019-03-11T13:51:04.251Z,95637
2019-03-11T13:52:13.786Z,95628
2019-03-11T13:53:23.284Z,95631
2019-03-11T13:54:32.786Z,95649
2019-03-11T13:55:42.367Z,95638
2019-03-11T13:56:51.826Z,95633
2019-03-11T13:58:01.328Z,95646
2019-03-11T13:59:10.841Z,95641
2019-03-11T14:00:20.354Z,95646
2019-03-11T14:01:29.859Z,95648
2019-03-11T14:02:39.378Z,95651
2019-03-11T14:03:48.880Z,95661
2019-03-11T14:04:58.387Z,95653
2019-03-11T14:06:07.899Z,95663
2019-03-11T14:07:17.415Z,95672
2019-03-11T14:08:26.926Z,95666
2019-03-11T14:09:36.425Z,95670
2019-03-11T14:10:45.931Z,95669
2019-03-11T14:11:55.438Z,95669
2019-03-11T14:13:04.964Z,95670
2019-03-11T14:14:14.445Z,95675
2019-03-11T14:15:23.953Z,95677
2019-03-11T14:16:33.463Z,95684
2019-03-11T14:17:42.983Z,95671
2019-03-11T14:18:52.489Z,95682
2019-03-11T14:20:02.026Z,95679
2019-03-11T14:21:11.835Z,95691
2019-03-11T14:22:22.339Z,95692
2019-03-11T14:23:31.834Z,95698
2019-03-11T14:24:41.341Z,95687
2019-03-11T14:25:50.848Z,95708
2019-03-11T14:27:00.350Z,95709
2019-03-11T14:28:09.882Z,95695
2019-03-11T14:29:19.381Z,95696
2019-03-11T14:30:28.883Z,95709
2019-03-11T14:31:38.383Z,95700
2019-03-11T14:32:47.912Z,95703
2019-03-11T14:33:57.408Z,95704
2019-03-11T14:35:06.911Z,95706
2019-03-11T14:36:16.422Z,95709
2019-03-11T14:37:25.946Z,95710
2019-03-11T14:38:35.444Z,95719
2019-03-11T14:39:44.931Z,95721
2019-03-11T14:40:54.431Z,95720
2019-03-11T14:42:03.933Z,95721
2019-03-11T14:43:13.452Z,95725
2019-03-11T14:44:22.961Z,95727
2019-03-11T14:45:32.467Z,95720
2019-03-11T14:46:41.969Z,95715
2019-03-11T14:47:51.494Z,95730
2019-03-11T14:49:00.995Z,95712
2019-03-11T14:50:11.487Z,95731
2019-03-11T14:51:20.988Z,95715
2019-03-11T14:52:30.582Z,95725
2019-03-11T14:53:40.095Z,95717
2019-03-11T14:54:49.600Z,95720
2019-03-11T14:55:59.102Z,95724